createdAt,value
2022-09-20T00:00:00.759Z,10.04
2022-09-20T00:01:00.751Z,10.01
2022-09-20T00:02:00.801Z,9.96
2022-09-20T00:03:00.661Z,9.91
2022-09-20T00:04:00.657Z,9.89
2022-09-20T00:05:00.665Z,9.87
2022-09-20T00:06:00.620Z,9.86
2022-09-20T00:07:00.617Z,9.86
2022-09-20T00:08:00.613Z,9.86
2022-09-20T00:09:00.574Z,9.86
2022-09-20T00:10:00.594Z,9.84
2022-09-20T00:11:00.548Z,9.86
2022-09-20T00:12:00.551Z,9.84
2022-09-20T00:13:00.516Z,9.86
2022-09-20T00:14:00.510Z,9.87
2022-09-20T00:15:00.496Z,9.91
2022-09-20T00:16:00.499Z,9.91
2022-09-20T00:17:00.571Z,9.90
2022-09-20T00:18:00.454Z,9.93
2022-09-20T00:19:00.428Z,9.96
2022-09-20T00:20:00.430Z,9.90
2022-09-20T00:21:00.426Z,9.86
2022-09-20T00:22:00.427Z,9.87
2022-09-20T00:23:00.381Z,9.87
2022-09-20T00:24:00.379Z,9.86
2022-09-20T00:25:00.405Z,9.89
2022-09-20T00:26:00.337Z,9.91
2022-09-20T00:27:00.365Z,9.94
2022-09-20T00:28:00.334Z,9.94
2022-09-20T00:29:00.317Z,9.96
2022-09-20T00:30:00.323Z,9.86
2022-09-20T00:31:00.274Z,9.69
2022-09-20T00:32:00.467Z,9.54
2022-09-20T00:33:00.253Z,9.38
2022-09-20T00:34:00.248Z,9.21
2022-09-20T00:35:00.240Z,9.13
2022-09-20T00:36:00.223Z,9.10
2022-09-20T00:37:00.223Z,9.13
2022-09-20T00:38:00.180Z,9.15
2022-09-20T00:39:00.191Z,9.23
2022-09-20T00:40:00.304Z,9.29
2022-09-20T00:41:00.140Z,9.35
2022-09-20T00:42:00.152Z,9.39
2022-09-20T00:43:00.134Z,9.40
2022-09-20T00:44:00.115Z,9.43
2022-09-20T00:45:00.226Z,9.48
2022-09-20T00:46:00.122Z,9.54
2022-09-20T00:47:00.106Z,9.60
2022-09-20T00:48:00.075Z,9.65
2022-09-20T00:49:00.061Z,9.66
2022-09-20T00:50:00.036Z,9.68
2022-09-20T00:51:00.002Z,9.66
2022-09-20T00:52:00.010Z,9.69
2022-09-20T00:52:59.984Z,9.71
2022-09-20T00:53:59.973Z,9.75
2022-09-20T00:54:59.990Z,9.76
2022-09-20T00:55:59.981Z,9.81
2022-09-20T00:56:59.933Z,9.83
2022-09-20T00:57:59.941Z,9.86
2022-09-20T00:58:59.902Z,9.84
2022-09-20T00:59:59.899Z,9.83
2022-09-20T01:00:59.949Z,9.83
2022-09-20T01:01:59.976Z,9.79
2022-09-20T01:02:59.855Z,9.83
2022-09-20T01:03:59.879Z,9.83
2022-09-20T01:04:59.936Z,9.81
2022-09-20T01:05:59.816Z,9.78
2022-09-20T01:06:59.887Z,9.76
2022-09-20T01:07:59.788Z,9.75
2022-09-20T01:08:59.781Z,9.71
2022-09-20T01:09:59.829Z,9.66
2022-09-20T01:10:59.769Z,9.65
2022-09-20T01:11:59.729Z,9.66
2022-09-20T01:12:59.716Z,9.65
2022-09-20T01:13:59.722Z,9.64
2022-09-20T01:14:59.708Z,9.68
2022-09-20T01:15:59.692Z,9.66
2022-09-20T01:16:59.747Z,9.68
2022-09-20T01:17:59.658Z,9.68
2022-09-20T01:18:59.646Z,9.68
2022-09-20T01:19:59.636Z,9.72
2022-09-20T01:20:59.625Z,9.72
2022-09-20T01:21:59.618Z,9.69
2022-09-20T01:22:59.581Z,9.71
2022-09-20T01:23:59.568Z,9.69
2022-09-20T01:24:59.556Z,9.66
2022-09-20T01:25:59.666Z,9.68
2022-09-20T01:26:59.667Z,9.68
2022-09-20T01:27:59.535Z,9.68
2022-09-20T01:28:59.508Z,9.72
2022-09-20T01:29:59.498Z,9.72
2022-09-20T01:30:59.493Z,9.72
2022-09-20T01:31:59.527Z,9.75
2022-09-20T01:32:59.478Z,9.76
2022-09-20T01:33:59.444Z,9.75
2022-09-20T01:34:59.451Z,9.69
2022-09-20T01:35:59.435Z,9.68
2022-09-20T01:36:59.404Z,9.65
2022-09-20T01:37:59.480Z,9.66
2022-09-20T01:38:59.383Z,9.69
2022-09-20T01:39:59.424Z,9.71
2022-09-20T01:40:59.349Z,9.74
2022-09-20T01:41:59.361Z,9.76
2022-09-20T01:42:59.331Z,9.76
2022-09-20T01:43:59.326Z,9.76
2022-09-20T01:44:59.350Z,9.76
2022-09-20T01:45:59.377Z,9.76
2022-09-20T01:46:59.273Z,9.74
2022-09-20T01:47:59.264Z,9.72
2022-09-20T01:48:59.254Z,9.72
2022-09-20T01:49:59.262Z,9.72
2022-09-20T01:50:59.261Z,9.69
2022-09-20T01:51:59.216Z,9.71
2022-09-20T01:52:59.192Z,9.69
2022-09-20T01:53:59.199Z,9.68
2022-09-20T01:54:59.144Z,9.69
2022-09-20T01:55:59.158Z,9.69
2022-09-20T01:56:59.153Z,9.66
2022-09-20T01:57:59.123Z,9.61
2022-09-20T01:59:19.892Z,9.61
2022-09-20T01:59:59.099Z,9.54
2022-09-20T02:00:59.167Z,9.50
2022-09-20T02:01:59.128Z,9.43
2022-09-20T02:02:59.065Z,9.38
2022-09-20T02:03:59.051Z,9.33
2022-09-20T02:04:59.036Z,9.31
2022-09-20T02:05:59.072Z,9.31
2022-09-20T02:06:59.005Z,9.29
2022-09-20T02:07:59.002Z,9.26
2022-09-20T02:08:58.993Z,9.26
2022-09-20T02:09:58.964Z,9.29
2022-09-20T02:10:58.964Z,9.32
2022-09-20T02:11:58.948Z,9.38
2022-09-20T02:12:58.938Z,9.40
2022-09-20T02:13:58.947Z,9.40
2022-09-20T02:14:58.920Z,9.46
2022-09-20T02:15:58.885Z,9.48
2022-09-20T02:16:58.963Z,9.50
2022-09-20T02:17:58.860Z,9.53
2022-09-20T02:18:58.837Z,9.54
2022-09-20T02:19:58.852Z,9.56
2022-09-20T02:20:58.811Z,9.56
2022-09-20T02:21:58.818Z,9.53
2022-09-20T02:22:58.819Z,9.56
2022-09-20T02:23:58.780Z,9.56
2022-09-20T02:24:58.796Z,9.58
2022-09-20T02:25:58.789Z,9.58
2022-09-20T02:26:58.741Z,9.57
2022-09-20T02:27:58.752Z,9.58
2022-09-20T02:28:58.706Z,9.61
2022-09-20T02:29:58.696Z,9.64
2022-09-20T02:30:58.707Z,9.65
2022-09-20T02:31:58.709Z,9.66
2022-09-20T02:32:58.675Z,9.68
2022-09-20T02:33:58.708Z,9.65
2022-09-20T02:34:58.641Z,9.66
2022-09-20T02:35:58.647Z,9.65
2022-09-20T02:36:58.618Z,9.61
2022-09-20T02:37:58.596Z,9.60
2022-09-20T02:38:58.660Z,9.61
2022-09-20T02:39:58.638Z,9.61
2022-09-20T02:40:58.563Z,9.65
2022-09-20T02:41:58.568Z,9.66
2022-09-20T02:42:58.527Z,9.64
2022-09-20T02:43:58.536Z,9.61
2022-09-20T02:44:58.503Z,9.60
2022-09-20T02:45:58.546Z,9.57
2022-09-20T02:46:58.582Z,9.57
2022-09-20T02:47:58.454Z,9.58
2022-09-20T02:48:58.468Z,9.57
2022-09-20T02:49:58.440Z,9.60
2022-09-20T02:50:58.404Z,9.61
2022-09-20T02:51:58.415Z,9.60
2022-09-20T02:52:58.427Z,9.56
2022-09-20T02:53:58.382Z,9.51
2022-09-20T02:54:58.387Z,9.47
2022-09-20T02:55:58.353Z,9.46
2022-09-20T02:56:58.363Z,9.43
2022-09-20T02:57:58.333Z,9.42
2022-09-20T02:58:58.327Z,9.40
2022-09-20T02:59:58.295Z,9.43
2022-09-20T03:00:58.396Z,9.43
2022-09-20T03:01:58.360Z,9.47
2022-09-20T03:02:58.262Z,9.48
2022-09-20T03:03:58.250Z,9.50
2022-09-20T03:04:58.259Z,9.51
2022-09-20T03:05:58.226Z,9.53
2022-09-20T03:06:58.211Z,9.50
2022-09-20T03:07:58.221Z,9.50
2022-09-20T03:08:58.188Z,9.48
2022-09-20T03:09:58.234Z,9.50
2022-09-20T03:10:58.173Z,9.56
2022-09-20T03:11:58.153Z,9.58
2022-09-20T03:12:58.157Z,9.60
2022-09-20T03:13:58.108Z,9.65
2022-09-20T03:14:58.116Z,9.61
2022-09-20T03:15:58.076Z,9.64
2022-09-20T03:16:58.161Z,9.61
2022-09-20T03:17:58.057Z,9.65
2022-09-20T03:18:58.070Z,9.68
2022-09-20T03:19:58.080Z,9.66
2022-09-20T03:20:58.032Z,9.68
2022-09-20T03:21:58.004Z,9.65
2022-09-20T03:22:57.996Z,9.65
2022-09-20T03:23:58.044Z,9.61
2022-09-20T03:24:57.992Z,9.61
2022-09-20T03:25:57.979Z,9.60
2022-09-20T03:26:57.968Z,9.56
2022-09-20T03:27:57.920Z,9.54
2022-09-20T03:28:57.963Z,9.53
2022-09-20T03:29:57.910Z,9.51
2022-09-20T03:30:57.882Z,9.48
2022-09-20T03:31:57.952Z,9.47
2022-09-20T03:32:57.858Z,9.46
2022-09-20T03:33:57.862Z,9.50
2022-09-20T03:34:57.846Z,9.57
2022-09-20T03:35:57.843Z,9.58
2022-09-20T03:36:57.824Z,9.56
2022-09-20T03:37:57.789Z,9.56
2022-09-20T03:38:57.837Z,9.56
2022-09-20T03:39:57.848Z,9.56
2022-09-20T03:40:57.789Z,9.56
2022-09-20T03:41:57.749Z,9.57
2022-09-20T03:42:57.727Z,9.60
2022-09-20T03:43:57.734Z,9.66
2022-09-20T03:44:57.757Z,9.69
2022-09-20T03:45:57.771Z,9.69
2022-09-20T03:46:57.675Z,9.69
2022-09-20T03:47:57.656Z,9.69
2022-09-20T03:48:57.644Z,9.69
2022-09-20T03:49:58.114Z,9.69
2022-09-20T03:50:57.623Z,9.72
2022-09-20T03:51:57.621Z,9.72
2022-09-20T03:52:57.715Z,9.72
2022-09-20T03:53:57.583Z,9.71
2022-09-20T03:54:57.576Z,9.69
2022-09-20T03:55:57.885Z,9.66
2022-09-20T03:56:57.544Z,9.66
2022-09-20T03:57:57.589Z,9.68
2022-09-20T03:58:57.522Z,9.71
2022-09-20T03:59:57.507Z,9.72
2022-09-20T04:00:57.545Z,9.72
2022-09-20T04:01:57.514Z,9.71
2022-09-20T04:02:57.476Z,9.71
2022-09-20T04:03:57.437Z,9.69
2022-09-20T04:04:57.450Z,9.68
2022-09-20T04:05:57.442Z,9.71
2022-09-20T04:06:57.412Z,9.71
2022-09-20T04:07:57.431Z,9.74
2022-09-20T04:08:57.396Z,9.75
2022-09-20T04:09:57.372Z,9.75
2022-09-20T04:10:57.383Z,9.75
2022-09-20T04:11:57.357Z,9.74
2022-09-20T04:12:57.373Z,9.74
2022-09-20T04:13:57.332Z,9.74
2022-09-20T04:14:57.309Z,9.72
2022-09-20T04:15:57.311Z,9.72
2022-09-20T04:16:57.334Z,9.69
2022-09-20T04:17:57.329Z,9.72
2022-09-20T04:18:57.256Z,9.74
2022-09-20T04:19:57.239Z,9.74
2022-09-20T04:20:57.266Z,9.74
2022-09-20T04:21:57.233Z,9.75
2022-09-20T04:22:57.197Z,9.76
2022-09-20T04:23:57.175Z,9.76
2022-09-20T04:24:57.209Z,9.76
2022-09-20T04:25:57.184Z,9.74
2022-09-20T04:26:57.195Z,9.71
2022-09-20T04:27:57.245Z,9.74
2022-09-20T04:28:57.175Z,9.72
2022-09-20T04:29:57.099Z,9.75
2022-09-20T04:30:57.087Z,9.76
2022-09-20T04:31:57.137Z,9.76
2022-09-20T04:32:57.103Z,9.75
2022-09-20T04:33:57.071Z,9.74
2022-09-20T04:34:57.044Z,9.74
2022-09-20T04:35:57.014Z,9.71
2022-09-20T04:36:57.019Z,9.69
2022-09-20T04:37:57.065Z,9.71
2022-09-20T04:38:56.985Z,9.72
2022-09-20T04:39:57.070Z,9.72
2022-09-20T04:40:56.946Z,9.74
2022-09-20T04:41:56.956Z,9.75
2022-09-20T04:42:56.952Z,9.76
2022-09-20T04:43:56.917Z,9.78
2022-09-20T04:44:56.902Z,9.79
2022-09-20T04:45:56.925Z,9.79
2022-09-20T04:46:56.888Z,9.81
2022-09-20T04:47:56.911Z,9.84
2022-09-20T04:48:56.888Z,9.83
2022-09-20T04:49:56.852Z,9.83
2022-09-20T04:50:56.837Z,9.81
2022-09-20T04:51:56.806Z,9.79
2022-09-20T04:52:56.834Z,9.79
2022-09-20T04:53:56.835Z,9.76
2022-09-20T04:54:56.787Z,9.74
2022-09-20T04:55:56.764Z,9.74
2022-09-20T04:56:56.731Z,9.69
2022-09-20T04:57:56.815Z,9.65
2022-09-20T04:58:56.754Z,9.64
2022-09-20T04:59:56.725Z,9.61
2022-09-20T05:00:56.715Z,9.60
2022-09-20T05:01:56.695Z,9.58
2022-09-20T05:02:56.802Z,9.58
2022-09-20T05:03:56.658Z,9.60
2022-09-20T05:04:56.674Z,9.61
2022-09-20T05:05:56.639Z,9.65
2022-09-20T05:06:56.606Z,9.61
2022-09-20T05:07:56.590Z,9.60
2022-09-20T05:08:58.853Z,9.61
2022-09-20T05:09:56.606Z,9.60
2022-09-20T05:10:56.566Z,9.58
2022-09-20T05:11:56.532Z,9.58
2022-09-20T05:12:56.530Z,9.58
2022-09-20T05:13:56.521Z,9.57
2022-09-20T05:14:56.557Z,9.57
2022-09-20T05:15:56.507Z,9.56
2022-09-20T05:16:56.529Z,9.58
2022-09-20T05:17:56.463Z,9.61
2022-09-20T05:18:56.456Z,9.60
2022-09-20T05:19:56.441Z,9.61
2022-09-20T05:20:56.424Z,9.61
2022-09-20T05:21:56.443Z,9.58
2022-09-20T05:22:56.393Z,9.58
2022-09-20T05:23:56.397Z,9.60
2022-09-20T05:24:56.448Z,9.61
2022-09-20T05:25:56.352Z,9.61
2022-09-20T05:26:56.362Z,9.61
2022-09-20T05:27:56.382Z,9.61
2022-09-20T05:28:56.359Z,9.64
2022-09-20T05:29:56.355Z,9.65
2022-09-20T05:30:56.341Z,9.65
2022-09-20T05:31:56.369Z,9.65
2022-09-20T05:32:56.292Z,9.65
2022-09-20T05:33:56.307Z,9.66
2022-09-20T05:34:56.257Z,9.65
2022-09-20T05:35:56.230Z,9.64
2022-09-20T05:36:56.216Z,9.64
2022-09-20T05:37:56.199Z,9.65
2022-09-20T05:38:57.210Z,9.64
2022-09-20T05:39:56.279Z,9.65
2022-09-20T05:40:56.175Z,9.65
2022-09-20T05:41:56.159Z,9.68
2022-09-20T05:42:56.132Z,9.69
2022-09-20T05:43:56.125Z,9.71
2022-09-20T05:44:56.136Z,9.74
2022-09-20T05:45:56.125Z,9.74
2022-09-20T05:46:56.070Z,9.74
2022-09-20T05:47:56.100Z,9.74
2022-09-20T05:48:56.059Z,9.72
2022-09-20T05:49:56.042Z,9.71
2022-09-20T05:50:57.154Z,9.69
2022-09-20T05:51:56.005Z,9.66
2022-09-20T05:52:56.045Z,9.64
2022-09-20T05:53:55.985Z,9.64
2022-09-20T05:54:56.000Z,9.64
2022-09-20T05:55:55.978Z,9.65
2022-09-20T05:56:55.951Z,9.65
2022-09-20T05:57:55.928Z,9.69
2022-09-20T05:58:55.934Z,9.72
2022-09-20T05:59:55.934Z,9.75
2022-09-20T06:00:55.936Z,9.79
2022-09-20T06:01:55.943Z,9.81
2022-09-20T06:02:55.894Z,9.83
2022-09-20T06:03:55.932Z,9.81
2022-09-20T06:04:55.851Z,9.81
2022-09-20T06:05:55.824Z,9.83
2022-09-20T06:06:55.828Z,9.83
2022-09-20T06:07:55.824Z,9.84
2022-09-20T06:08:55.800Z,9.86
2022-09-20T06:09:55.774Z,9.87
2022-09-20T06:10:55.777Z,9.90
2022-09-20T06:11:55.764Z,9.93
2022-09-20T06:12:55.738Z,9.93
2022-09-20T06:13:55.742Z,9.96
2022-09-20T06:14:55.716Z,9.97
2022-09-20T06:15:55.728Z,9.96
2022-09-20T06:16:55.700Z,9.96
2022-09-20T06:17:55.680Z,9.96
2022-09-20T06:18:55.696Z,9.96
2022-09-20T06:19:55.648Z,9.97
2022-09-20T06:20:55.676Z,10.01
2022-09-20T06:21:55.643Z,10.07
2022-09-20T06:22:55.617Z,10.08
2022-09-20T06:23:55.601Z,10.09
2022-09-20T06:24:55.568Z,10.14
2022-09-20T06:25:55.562Z,10.15
2022-09-20T06:26:55.593Z,10.17
2022-09-20T06:27:55.577Z,10.20
2022-09-20T06:28:58.340Z,10.20
2022-09-20T06:29:55.515Z,10.22
2022-09-20T06:30:55.609Z,10.25
2022-09-20T06:31:55.514Z,10.23
2022-09-20T06:32:56.251Z,10.27
2022-09-20T06:33:55.466Z,10.26
2022-09-20T06:34:55.460Z,10.29
2022-09-20T06:35:58.813Z,10.32
2022-09-20T06:36:55.466Z,10.38
2022-09-20T06:37:55.531Z,10.40
2022-09-20T06:38:55.424Z,10.44
2022-09-20T06:39:55.380Z,10.45
2022-09-20T06:40:55.361Z,10.48
2022-09-20T06:41:55.381Z,10.48
2022-09-20T06:42:55.892Z,10.51
2022-09-20T06:43:55.320Z,10.53
2022-09-20T06:44:55.342Z,10.55
2022-09-20T06:45:55.333Z,10.59
2022-09-20T06:46:55.386Z,10.60
2022-09-20T06:47:55.325Z,10.64
2022-09-20T06:48:55.295Z,10.71
2022-09-20T06:49:55.266Z,10.74
2022-09-20T06:50:55.228Z,10.81
2022-09-20T06:51:55.244Z,10.84
2022-09-20T06:52:55.262Z,10.86
2022-09-20T06:53:55.270Z,10.89
2022-09-20T06:54:55.183Z,10.94
2022-09-20T06:55:55.168Z,10.96
2022-09-20T06:56:55.182Z,10.99
2022-09-20T06:57:55.145Z,10.99
2022-09-20T06:58:55.171Z,11.00
2022-09-20T06:59:55.167Z,11.03
2022-09-20T07:00:55.178Z,11.03
2022-09-20T07:01:55.114Z,11.07
2022-09-20T07:02:55.103Z,11.07
2022-09-20T07:03:55.052Z,11.07
2022-09-20T07:04:55.042Z,11.06
2022-09-20T07:05:55.047Z,11.07
2022-09-20T07:06:55.014Z,11.10
2022-09-20T07:07:54.993Z,11.09
2022-09-20T07:08:55.049Z,11.11
2022-09-20T07:09:55.023Z,11.17
2022-09-20T07:10:54.993Z,11.17
2022-09-20T07:11:55.004Z,11.18
2022-09-20T07:12:54.951Z,11.19
2022-09-20T07:13:54.940Z,11.21
2022-09-20T07:14:54.911Z,11.24
2022-09-20T07:15:54.925Z,11.28
2022-09-20T07:16:54.959Z,11.35
2022-09-20T07:17:54.879Z,11.39
2022-09-20T07:18:54.863Z,11.42
2022-09-20T07:19:54.860Z,11.47
2022-09-20T07:20:54.829Z,11.52
2022-09-20T07:21:54.839Z,11.54
2022-09-20T07:22:54.862Z,11.55
2022-09-20T07:23:54.885Z,11.62
2022-09-20T07:24:54.802Z,11.70
2022-09-20T07:25:54.865Z,11.76
2022-09-20T07:26:54.747Z,11.83
2022-09-20T07:27:54.780Z,11.95
2022-09-20T07:28:54.724Z,12.09
2022-09-20T07:29:54.718Z,12.19
2022-09-20T07:30:54.737Z,12.27
2022-09-20T07:31:54.769Z,12.34
2022-09-20T07:32:54.750Z,12.38
2022-09-20T07:33:54.646Z,12.45
2022-09-20T07:34:54.660Z,12.50
2022-09-20T07:35:54.646Z,12.54
2022-09-20T07:36:54.634Z,12.68
2022-09-20T07:37:54.691Z,12.82
2022-09-20T07:38:54.620Z,12.96
2022-09-20T07:39:54.592Z,13.12
2022-09-20T07:40:54.562Z,13.25
2022-09-20T07:41:54.577Z,13.23
2022-09-20T07:42:56.336Z,13.29
2022-09-20T07:43:54.534Z,13.30
2022-09-20T07:44:54.509Z,13.36
2022-09-20T07:45:54.553Z,13.46
2022-09-20T07:46:54.477Z,13.55
2022-09-20T07:47:54.491Z,13.69
2022-09-20T07:48:54.456Z,13.81
2022-09-20T07:49:54.446Z,13.99
2022-09-20T07:50:54.466Z,14.10
2022-09-20T07:51:54.429Z,14.14
2022-09-20T07:52:54.426Z,14.04
2022-09-20T07:53:54.385Z,13.99
2022-09-20T07:54:54.449Z,13.88
2022-09-20T07:55:54.377Z,13.75
2022-09-20T07:56:54.403Z,13.73
2022-09-20T07:57:54.357Z,13.75
2022-09-20T07:58:54.354Z,13.77
2022-09-20T07:59:54.347Z,13.82
2022-09-20T08:00:54.336Z,13.82
2022-09-20T08:01:54.314Z,13.84
2022-09-20T08:02:54.291Z,13.79
2022-09-20T08:03:54.286Z,13.81
2022-09-20T08:04:54.240Z,13.85
2022-09-20T08:05:54.225Z,14.02
2022-09-20T08:06:54.208Z,14.04
2022-09-20T08:07:54.204Z,14.06
2022-09-20T08:08:54.207Z,14.10
2022-09-20T08:09:54.178Z,14.18
2022-09-20T08:10:54.161Z,14.27
2022-09-20T08:11:54.205Z,14.37
2022-09-20T08:14:09.597Z,14.69
2022-09-20T08:14:54.112Z,14.83
2022-09-20T08:15:54.092Z,14.91
2022-09-20T08:16:54.099Z,14.98
2022-09-20T08:17:54.106Z,14.99
2022-09-20T08:18:54.056Z,15.06
2022-09-20T08:19:54.047Z,15.02
2022-09-20T08:20:54.056Z,14.99
2022-09-20T08:21:54.013Z,14.94
2022-09-20T08:23:19.403Z,15.01
2022-09-20T08:23:53.982Z,15.20
2022-09-20T08:24:53.983Z,15.25
2022-09-20T08:25:53.955Z,15.35
2022-09-20T08:26:53.941Z,15.53
2022-09-20T08:27:53.955Z,15.72
2022-09-20T08:28:53.923Z,15.84
2022-09-20T08:29:53.931Z,15.94
2022-09-20T08:30:53.975Z,16.05
2022-09-20T08:31:53.896Z,16.02
2022-09-20T08:32:53.870Z,16.08
2022-09-20T08:33:53.861Z,16.24
2022-09-20T08:34:53.861Z,16.28
2022-09-20T08:35:57.802Z,16.34
2022-09-20T08:36:53.841Z,16.34
2022-09-20T08:37:54.006Z,16.39
2022-09-20T08:39:57.869Z,16.23
2022-09-20T08:40:53.807Z,16.24
2022-09-20T08:41:53.736Z,16.24
2022-09-20T08:42:53.723Z,16.24
2022-09-20T08:43:53.716Z,16.15
2022-09-20T08:45:00.952Z,16.17
2022-09-20T08:45:53.752Z,16.24
2022-09-20T08:46:53.667Z,16.30
2022-09-20T08:47:58.391Z,16.45
2022-09-20T08:48:53.698Z,16.60
2022-09-20T08:49:56.729Z,16.71
2022-09-20T08:50:53.656Z,16.82
2022-09-20T08:51:53.608Z,16.88
2022-09-20T08:52:53.899Z,16.94
2022-09-20T08:53:53.589Z,16.97
2022-09-20T08:54:53.573Z,17.01
2022-09-20T08:55:53.584Z,17.08
2022-09-20T08:56:53.550Z,17.14
2022-09-20T08:57:53.538Z,17.18
2022-09-20T08:58:53.627Z,17.16
2022-09-20T08:59:53.531Z,17.18
2022-09-20T09:00:53.539Z,17.22
2022-09-20T09:01:53.705Z,17.22
2022-09-20T09:02:53.458Z,17.23
2022-09-20T09:03:53.456Z,17.26
2022-09-20T09:04:53.445Z,17.28
2022-09-20T09:05:53.426Z,17.33
2022-09-20T09:06:53.442Z,17.40
2022-09-20T09:07:53.395Z,17.44
2022-09-20T09:08:53.389Z,17.30
2022-09-20T09:09:53.389Z,17.03
2022-09-20T09:10:53.363Z,17.03
2022-09-20T09:11:53.364Z,17.04
2022-09-20T09:12:53.379Z,17.07
2022-09-20T09:13:53.536Z,17.16
2022-09-20T09:14:53.309Z,17.26
2022-09-20T09:15:53.295Z,17.34
2022-09-20T09:16:53.316Z,17.22
2022-09-20T09:17:53.298Z,17.26
2022-09-20T09:18:53.255Z,17.19
2022-09-20T09:19:53.238Z,16.85
2022-09-20T09:20:53.270Z,16.48
2022-09-20T09:21:53.232Z,16.17
2022-09-20T09:22:53.205Z,16.21
2022-09-20T09:23:53.219Z,16.35
2022-09-20T09:24:53.251Z,16.52
2022-09-20T09:25:53.170Z,16.61
2022-09-20T09:26:53.135Z,16.52
2022-09-20T09:27:53.141Z,16.50
2022-09-20T09:28:53.217Z,16.56
2022-09-20T09:29:53.145Z,16.58
2022-09-20T09:30:53.113Z,16.63
2022-09-20T09:31:53.205Z,16.61
2022-09-20T09:32:53.088Z,16.50
2022-09-20T09:33:53.094Z,16.61
2022-09-20T09:34:53.029Z,16.91
2022-09-20T09:35:53.127Z,17.15
2022-09-20T09:36:53.053Z,17.40
2022-09-20T09:37:53.035Z,17.52
2022-09-20T09:38:52.987Z,17.22
2022-09-20T09:39:52.965Z,16.91
2022-09-20T09:40:52.954Z,16.82
2022-09-20T09:41:52.983Z,16.79
2022-09-20T09:42:52.959Z,16.64
2022-09-20T09:43:52.939Z,16.35
2022-09-20T09:44:52.897Z,16.20
2022-09-20T09:45:52.966Z,16.04
2022-09-20T09:46:52.916Z,15.94
2022-09-20T09:47:52.892Z,15.78
2022-09-20T09:48:52.853Z,15.72
2022-09-20T09:49:57.654Z,15.67
2022-09-20T09:50:53.267Z,15.65
2022-09-20T09:51:52.817Z,15.67
2022-09-20T09:52:52.805Z,15.71
2022-09-20T09:53:52.800Z,15.80
2022-09-20T09:54:52.803Z,15.94
2022-09-20T09:55:52.748Z,16.08
2022-09-20T09:56:52.742Z,16.31
2022-09-20T09:57:52.739Z,16.50
2022-09-20T09:58:52.780Z,16.70
2022-09-20T09:59:52.724Z,16.98
2022-09-20T10:00:52.772Z,17.14
2022-09-20T10:01:52.771Z,17.21
2022-09-20T10:02:52.681Z,17.19
2022-09-20T10:03:52.669Z,17.16
2022-09-20T10:04:52.660Z,17.12
2022-09-20T10:05:52.649Z,17.01
2022-09-20T10:06:52.650Z,16.91
2022-09-20T10:07:52.646Z,16.86
2022-09-20T10:08:52.576Z,16.82
2022-09-20T10:09:52.580Z,16.81
2022-09-20T10:10:52.579Z,16.75
2022-09-20T10:11:52.552Z,16.76
2022-09-20T10:12:52.585Z,16.73
2022-09-20T10:13:52.547Z,16.63
2022-09-20T10:14:52.520Z,16.31
2022-09-20T10:15:52.495Z,16.02
2022-09-20T10:16:52.535Z,15.76
2022-09-20T10:17:52.473Z,15.60
2022-09-20T10:18:52.493Z,15.56
2022-09-20T10:19:52.454Z,15.59
2022-09-20T10:20:52.435Z,15.68
2022-09-20T10:21:52.453Z,15.71
2022-09-20T10:23:24.179Z,15.67
2022-09-20T10:24:03.146Z,15.59
2022-09-20T10:24:52.388Z,15.56
2022-09-20T10:25:52.401Z,15.54
2022-09-20T10:26:52.368Z,15.53
2022-09-20T10:27:52.375Z,15.44
2022-09-20T10:28:52.362Z,15.39
2022-09-20T10:29:52.337Z,15.41
2022-09-20T10:30:52.350Z,15.41
2022-09-20T10:31:52.277Z,15.38
2022-09-20T10:32:52.304Z,15.35
2022-09-20T10:33:52.260Z,15.36
2022-09-20T10:34:52.262Z,15.41
2022-09-20T10:35:52.216Z,15.47
2022-09-20T10:36:52.278Z,15.51
2022-09-20T10:37:52.207Z,15.53
2022-09-20T10:38:52.208Z,15.51
2022-09-20T10:39:52.189Z,15.49
2022-09-20T10:40:52.181Z,15.43
2022-09-20T10:41:52.181Z,15.36
2022-09-20T10:42:52.156Z,15.34
2022-09-20T10:43:52.116Z,15.32
2022-09-20T10:44:52.116Z,15.34
2022-09-20T10:46:52.354Z,15.44
2022-09-20T10:47:52.126Z,15.51
2022-09-20T10:48:52.087Z,15.62
2022-09-20T10:49:52.050Z,15.65
2022-09-20T10:50:52.034Z,15.71
2022-09-20T10:51:52.021Z,15.76
2022-09-20T10:52:52.026Z,15.84
2022-09-20T10:53:52.060Z,15.90
2022-09-20T10:54:51.979Z,15.94
2022-09-20T10:55:51.981Z,16.02
2022-09-20T10:56:51.994Z,16.07
2022-09-20T10:57:51.938Z,16.12
2022-09-20T10:58:51.909Z,16.21
2022-09-20T10:59:51.962Z,16.30
2022-09-20T11:00:51.951Z,16.42
2022-09-20T11:01:51.940Z,16.45
2022-09-20T11:02:51.867Z,16.31
2022-09-20T11:03:51.857Z,16.15
2022-09-20T11:04:51.892Z,15.97
2022-09-20T11:05:51.861Z,15.75
2022-09-20T11:06:51.839Z,15.56
2022-09-20T11:07:51.815Z,15.41
2022-09-20T11:08:51.836Z,15.25
2022-09-20T11:09:51.782Z,15.14
2022-09-20T11:10:51.796Z,15.09
2022-09-20T11:11:51.735Z,15.03
2022-09-20T11:12:51.753Z,15.02
2022-09-20T11:13:51.729Z,15.10
2022-09-20T11:14:51.711Z,15.17
2022-09-20T11:15:51.728Z,15.21
2022-09-20T11:16:51.735Z,15.21
2022-09-20T11:17:51.716Z,15.19
2022-09-20T11:18:52.485Z,15.16
2022-09-20T11:19:51.732Z,15.14
2022-09-20T11:20:51.616Z,15.11
2022-09-20T11:21:51.651Z,15.17
2022-09-20T11:22:51.629Z,15.21
2022-09-20T11:23:51.932Z,15.31
2022-09-20T11:24:51.616Z,15.35
2022-09-20T11:25:51.546Z,15.36
2022-09-20T11:26:51.566Z,15.38
2022-09-20T11:27:51.551Z,15.43
2022-09-20T11:28:51.532Z,15.47
2022-09-20T11:29:51.500Z,15.51
2022-09-20T11:30:51.499Z,15.57
2022-09-20T11:31:51.596Z,15.65
2022-09-20T11:32:51.482Z,15.67
2022-09-20T11:33:51.500Z,15.62
2022-09-20T11:34:51.442Z,15.59
2022-09-20T11:35:51.444Z,15.57
2022-09-20T11:36:51.436Z,15.56
2022-09-20T11:37:51.435Z,15.56
2022-09-20T11:38:53.359Z,15.57
2022-09-20T11:39:51.376Z,15.60
2022-09-20T11:40:51.360Z,15.60
2022-09-20T11:41:51.396Z,15.64
2022-09-20T11:42:51.362Z,15.65
2022-09-20T11:43:51.330Z,15.64
2022-09-20T11:44:51.400Z,15.56
2022-09-20T11:45:51.354Z,15.47
2022-09-20T11:46:51.280Z,15.39
2022-09-20T11:47:54.912Z,15.34
2022-09-20T11:48:51.246Z,15.36
2022-09-20T11:49:51.235Z,15.38
2022-09-20T11:50:51.250Z,15.38
2022-09-20T11:51:51.212Z,15.38
2022-09-20T11:52:51.224Z,15.35
2022-09-20T11:53:51.203Z,15.32
2022-09-20T11:54:51.241Z,15.34
2022-09-20T11:55:51.186Z,15.38
2022-09-20T11:56:51.264Z,15.41
2022-09-20T11:57:51.134Z,15.49
2022-09-20T11:58:51.144Z,15.56
2022-09-20T11:59:51.113Z,15.64
2022-09-20T12:00:51.079Z,15.71
2022-09-20T12:01:51.101Z,15.76
2022-09-20T12:02:51.214Z,15.83
2022-09-20T12:03:54.633Z,15.89
2022-09-20T12:04:51.098Z,15.92
2022-09-20T12:05:51.053Z,15.93
2022-09-20T12:06:51.015Z,15.90
2022-09-20T12:07:51.018Z,15.87
2022-09-20T12:08:50.992Z,15.89
2022-09-20T12:09:50.990Z,15.90
2022-09-20T12:10:50.956Z,15.93
2022-09-20T12:11:50.943Z,15.97
2022-09-20T12:12:50.910Z,16.04
2022-09-20T12:13:50.943Z,16.05
2022-09-20T12:14:50.931Z,16.07
2022-09-20T12:15:50.897Z,16.05
2022-09-20T12:16:50.914Z,16.08
2022-09-20T12:17:51.457Z,16.09
2022-09-20T12:18:50.862Z,16.14
2022-09-20T12:19:50.850Z,16.17
2022-09-20T12:20:50.854Z,16.24
2022-09-20T12:21:50.828Z,16.30
2022-09-20T12:22:50.835Z,16.30
2022-09-20T12:23:50.786Z,16.28
2022-09-20T12:24:50.772Z,16.27
2022-09-20T12:25:50.771Z,16.20
2022-09-20T12:26:50.747Z,16.09
2022-09-20T12:27:50.725Z,16.00
2022-09-20T12:28:50.736Z,15.90
2022-09-20T12:29:50.715Z,15.84
2022-09-20T12:30:50.755Z,15.80
2022-09-20T12:31:50.712Z,15.76
2022-09-20T12:32:50.661Z,15.76
2022-09-20T12:33:50.664Z,15.76
2022-09-20T12:34:50.637Z,15.82
2022-09-20T12:35:50.647Z,15.86
2022-09-20T12:36:50.621Z,15.92
2022-09-20T12:37:50.598Z,15.94
2022-09-20T12:38:50.570Z,15.97
2022-09-20T12:39:50.618Z,16.00
2022-09-20T12:40:50.547Z,16.02
2022-09-20T12:41:50.547Z,16.02
2022-09-20T12:42:50.534Z,16.05
2022-09-20T12:43:50.648Z,16.09
2022-09-20T12:44:50.496Z,16.15
2022-09-20T12:45:50.533Z,16.20
2022-09-20T12:46:50.484Z,16.21
2022-09-20T12:47:50.486Z,16.21
2022-09-20T12:48:50.494Z,16.23
2022-09-20T12:49:50.440Z,16.21
2022-09-20T12:50:50.451Z,16.24
2022-09-20T12:51:50.520Z,16.23
2022-09-20T12:52:50.406Z,16.24
2022-09-20T12:53:50.382Z,16.20
2022-09-20T12:54:50.361Z,16.17
2022-09-20T12:55:50.372Z,16.15
2022-09-20T12:56:50.341Z,16.12
2022-09-20T12:57:50.328Z,16.12
2022-09-20T12:58:50.334Z,16.12
2022-09-20T12:59:50.285Z,16.11
2022-09-20T13:00:50.345Z,16.07
2022-09-20T13:01:50.326Z,16.07
2022-09-20T13:02:50.261Z,16.08
2022-09-20T13:03:50.261Z,16.08
2022-09-20T13:04:50.253Z,16.07
2022-09-20T13:05:50.240Z,16.00
2022-09-20T13:06:50.192Z,15.92